Rallye Mare e Machja 2017
Le 10,11, 12 Novembre
1 1 LEANDRI Jean-Mathieu/GORGUILO Anthony Skoda Fabia R 5 30:16,6
2 2 GORDON Jean Pierre/GORDON Fabrice Ford Fiesta R 5 30:58,0 +00:41,4 +00:41,4
3 7 LEFEBVRE Frédéric/DINI Gilbert Mitsubishi Evo 9 FA 8 31:52,7 +01:36,1 +00:54,7
4 8 GALEANI Jean-Joseph/LEONARDI Pierre-Marien Mitsubishi Evo 9 R 4 32:12,6 +01:56,0 +00:19,9
5 4 PISANO Mickaël/BERTHOLLE Olivier Ford Fiesta R 5 32:14,7 +01:58,1 +00:02,1
6 26 ANDREUCCI Frédéric/LECA Nicolas Renault Clio 16V FA 6K 32:21,3 +02:04,7 +00:06,6
7 49 MUSELLI Jean-Philippe/MASSON Elodie Renault Clio FN 3 32:25,8 +02:09,2 +00:04,5
8 40 ALERINI Paul/BARICHELLA Tony Peugeot 208 Vti R 2 32:32,9 +02:16,3 +00:07,1
9 41 FIORI Jean-Antoine/TAVERA Julien Citroën C2 R2 R 2 32:34,1 +02:17,5 +00:01,2
10 12 LANGIANI Patrick/D'ULIVO Jean-Francois Renault F2 14 32:37,6 +02:21,0 +00:03,5
11 52 RENUCCI Pierre-Paul/MAESTRONI Céline Renault Clio Rs Ragnotti N 3 32:41,2 +02:24,6 +00:03,6
12 28 VANNUCCI Louis/DE BARTOLO Fabrice Citroën Saxo S1600 FA 6K 33:06,1 +02:49,5 +00:24,9
13 43 SERRA Dominique/BURESI Francois-Xavier Peugeot 208 Vti R 2 33:06,6 +02:50,0 +00:00,5
14 50 CHASSAING Philippe/BACCHIOLELLI Jean-Baptiste Renault Clio Ragnotti FN 3 33:10,0 +02:53,4 +00:03,4
15 29 GIORGI Fabrice/BEILL Raphaël Peugeot 106 Maxi FA 6K 33:24,2 +03:07,6 +00:14,2
16 51 DE LA FOATA Paul/TERRONI Cédric Renault Clio Ragnotti N 3 33:33,5 +03:16,9 +00:09,3
17 14 GAMBARELLI Anghjulu/CASANOVA Miguel Renault Clio F2 14 33:36,4 +03:19,8 +00:02,9
18 57 RASIGNI Romain/JOVER Denis Renault Clio Ragnotti N 3 34:15,3 +03:58,7 +00:38,9
19 5 RENUCCI Kathia/PAOLINI Angélique Peugeot 207 S2000 A 7S 34:18,9 +04:02,3 +00:03,6
20 58 RENUCCI Antoine/SIMEONI Jean-Marc Renault Clio Ragnotti FN 3 34:25,6 +04:09,0 +00:06,7
21 46 BURESI Adrien/BURESI Romain Peugeot 208 R2 R 2 34:26,9 +04:10,3 +00:01,3
22 34 MARIANI Anthony/HELM Vivien Peugeot 206 Xs FA 6K 34:45,7 +04:29,1 +00:18,8
23 10 ROSSI Yannick/VOLPEI Baptiste Mitsubishi Lancer Evo 9 FN 4 34:46,2 +04:29,6 +00:00,5
24 3 MARTINI Jean-Philippe/FIESCHI Ambroise Peugeot 208 T16 R 5 35:06,0 +04:49,4 +00:19,8
25 65 LORENZONI Philippe/CATELLAGGI Julie Honda Civic Eg6 FN 2 35:07,0 +04:50,4 +00:01,0
26 59 MARCHETTI Michel/MAUREL Virginie Citroën Saxo Vts F2 13 35:07,2 +04:50,6 +00:00,2
27 42 GERONIMI Dominique/GARCIA Dann Citroën C2 Vts R 2 35:08,0 +04:51,4 +00:00,8
28 45 BUCCI Pierre-Laurent/CAVIGLIOLI Caroline Citroën C2 R2 Max R 2 35:09,2 +04:52,6 +00:01,2
29 54 DE MEYER Jean-Michel/FRATTI Eric Renault Clio Ragnotti N 3 35:10,3 +04:53,7 +00:01,1
30 33 MARCHINI Jean Paul/SIMONETTI Johanna Peugeot 206 Xs A 6K 35:28,7 +05:12,1 +00:18,4
31 64 VENTURI Christian/PIERAZZI Arnaud Peugeot 205 Rallye FA 5 35:29,3 +05:12,7 +00:00,6
32 44 ANTONA Julien/MANZAGGI Nicolas Citroën C2 R2 Max R 2 35:33,3 +05:16,7 +00:04,0
33 32 BROQUET John/STEFANAGGI Antoine Peugeot 106 S16 A 6K 35:51,3 +05:34,7 +00:18,0
34 68 NIVAGGIONI Jean-Toussaint/PONSOT Sébastien Citroën Saxo Vts FN 2 36:12,4 +05:55,8 +00:21,1
35 15 FILMONT Jérôme/VIGNOLI Jean-Francois Peugeot 306 S16 F2 14 36:13,7 +05:57,1 +00:01,3
36 6 GIOVANNANGELI Jean Baptiste/SANTARELLI Coralie BMW M3 FA 8 36:29,8 +06:13,2 +00:16,1
37 66 MAESTRACCI François/CASANOVA Sébastien Peugeot 106 FN 2 36:55,1 +06:38,5 +00:25,3
38 62 SALINI Laura/PERETTI Myriam Citroën Saxo FA 6 37:03,3 +06:46,7 +00:08,2
39 39 VITTORI Marc-Antoine/PORCU Pascal-Andre Citroën C2 A 6K 37:05,9 +06:49,3 +00:02,6
40 22 RENUCCI Jacques-Andre/RENUCCI Daniel Peugeot 205 Gti F2 14 37:17,5 +07:00,9 +00:11,6
41 9 CHIARONI Pascal/BRUNELLI Anne-Laure Renault Clio Sport Max R 3 37:34,4 +07:17,8 +00:16,9
42 61 RENUCCI Antoine/RENUCCI Anthony Peugeot 205 Rallye F2 13 37:43,9 +07:27,3 +00:09,5
43 35 MARTINETTI Jean-Laurent/DELCLAUD Christian Peugeot 206 Xs A 6K 37:48,5 +07:31,9 +00:04,6
44 74 PINELLI Jean-Pierre/CANEGGIANI Dylan Peugeot 205 Rallye F2 12 37:55,4 +07:38,8 +00:06,9
45 23 ROBERT Alexandre/MILIANI Pascal Peugeot 205 F2 14 38:03,7 +07:47,1 +00:08,3
46 37 CASALTA Cyril/FERRACCI Nicolas Peugeot 206 FA 6K 38:19,8 +08:03,2 +00:16,1
47 72 PAPON Jean-Noel/AMBROSI Céline Citroën Saxo Vts F2 12 38:42,6 +08:26,0 +00:22,8
48 67 CASABIANCA Jacques-Francois/PENNACCHIONI Marcel Peugeot 106 S16 FN 2 38:51,1 +08:34,5 +00:08,5
49 76 NICOLI Gérard/GALTIERI Marie-Flore Citroën Ax Sport FN 1 38:54,2 +08:37,6 +00:03,1
50 17 CALISTRI Jean-Claude/CALISTRI Nicolas Renault 5 Gt Turbo F2 14 39:27,3 +09:10,7 +00:33,1
51 25 SALVADORI Paul-Joseph/CARRE Jessica Peugeot 205 GTI F2 14 40:48,9 +10:32,3 +01:21,6
52 75 TROMBI Philippe/DELATTRE Judicael Peugeot 106 F2 12 40:52,8 +10:36,2 +00:03,9
53 36 GERONIMI Dominique-Noel/QUILICI Anthony Peugeot 106 S16 FA 6K 40:57,6 +10:41,0 +00:04,8
54 48 PAOLI Benjamin/MOSSA Sebastien Peugeot 208 Vti R 2 41:05,2 +10:48,6 +00:07,6
55 24 ROSSINI Stefanu/ALTANA Ludovic Renault Clio F2 14 41:19,8 +11:03,2 +00:14,6
56 38 CADDEO Allan/LOUVEL Jade Peugeot 206 Xs FA 6K 41:26,8 +11:10,2 +00:07,0
57 20 MISERAZZI Fabrice/ROS Patrick Peugeot 205 F2 14 44:46,9 +14:30,3 +03:20,1
58 47 GIANNINI Eric/GIANNINI Anthony Peugeot 208 R2 R 2 54:48,9 +24:32,3 +10:02,0
Clt Equipage Voiture Gr/Cl Temps Ecart 1er Ecart préc. Catégories
Commentaires: © PatricK Soft  
(Temps forfaitaires=couleur bleue)
Classés:58

Epreuve: Groupe: Catégorie:

 
Retour
Classement après ES3-Gradello - Verghia 2 (12.400 km)